Jump to content


HORIZON AIRLINES FLIGHT QX2378 FLOWN ON 01-09-2018 BY CAPTAIN TYLER HANUS

Pilot StatsCaptain Tyler Hanus (LDP525) • 294.2 total hours • 82 total flights [View Logbook]
FLIGHT DETAILS
StatusReceived and approved on 2018-01-09 at 18:01:30
Origin AirportSeattle-Tacoma Intl (KSEA) • Seattle, Washington, United States (433 feet MSL)
Filed Flight PlanKSEA NORMY J12 BLUIT J90 MWH J34 ODESS KGEG
Destination AirportSpokane Intl (KGEG) • Spokane, Washington, United States (2,371 feet MSL)
Alternate AirportSeattle-Tacoma Intl (KSEA) • Seattle, Washington, United States (433 feet MSL)
AirlineHorizon Airlines
AircraftDe Havilland DHC-8-400 Dash 8/8Q (DH4 / DHC-8-400)
FS Aircraft UsedMJC8Q400_QXE
Cruising AltitudeFL230
Distance Flown194 nautical miles
Passengers Onboard65 passengers (92.86% full)
DEPARTURE DETAILS
Time Out14:13:02
Taxi Data61,668 lbs total with 6,593 lbs of fuel onboard
Takeoff Data14:28:49 (16 minutes after leaving gate/ramp) • 61,392 lbs total • 19° pitch at 136 knots
Departure METARKSEA 092053Z 00000KT 6SM BR FEW007 OVC011 07/06 A2966 RMK AO2 RAB09E17 SLP052 VIS NW 2 P0000 60000 T00720056 51014
ARRIVAL DETAILS
Landing Data15:26:21 • 59,470 lbs total • 19° pitch doing 116 knots at a rate of -187.62 feet/minute with 4,288 lbs of fuel onboard
Time In15:32:52 (7 minutes after landing)
Ramp Weight59,362 lbs total
Total Fuel Used2,305 lbs
Total Block Time01:17:25 (1.3 hours) while 22 minutes were spent on the ground
Arrival METARKGEG 092321Z 24003KT 1/4SM R21/P6000FT BR OVC002 02/02 A2954 RMK AO2 SFC VIS 3/4 T00170017
MISCELLANEOUS DETAILS
LiveDISPATCH Version4.8.3.1
FS Version
FSUIPC Version4.97
OS VersionWindows 7 32-bit
Screen Resolution1360 x 768
Pilot's CommentsNo Comments Reported
FLIGHT MAP